createdAt,value
2022-12-19T00:00:51.061Z,2.075805664
2022-12-19T00:01:51.700Z,2.075805664
2022-12-19T00:02:52.351Z,2.085876465
2022-12-19T00:03:52.656Z,2.085876465
2022-12-19T00:04:53.171Z,2.085876465
2022-12-19T00:05:53.776Z,2.075805664
2022-12-19T00:06:54.332Z,2.075805664
2022-12-19T00:07:55.675Z,2.075805664
2022-12-19T00:08:57.057Z,2.075805664
2022-12-19T00:09:57.941Z,2.065734863
2022-12-19T00:10:58.535Z,2.075805664
2022-12-19T00:11:59.803Z,2.085876465
2022-12-19T00:13:31.215Z,2.106018066
2022-12-19T00:14:31.124Z,2.106018066
2022-12-19T00:15:31.619Z,2.106018066
2022-12-19T00:16:32.180Z,2.106018066
2022-12-19T00:17:32.712Z,2.116088867
2022-12-19T00:18:34.062Z,2.116088867
2022-12-19T00:19:34.597Z,2.14630127
2022-12-19T00:20:35.105Z,2.176513672
2022-12-19T00:21:35.736Z,2.14630127
2022-12-19T00:22:37.309Z,2.14630127
2022-12-19T00:23:37.949Z,2.136230469
2022-12-19T00:24:38.373Z,2.136230469
2022-12-19T00:25:39.660Z,2.116088867
2022-12-19T00:26:39.398Z,2.106018066
2022-12-19T00:27:40.141Z,2.085876465
2022-12-19T00:28:41.626Z,2.085876465
2022-12-19T00:29:42.236Z,2.075805664
2022-12-19T00:30:42.715Z,2.065734863
2022-12-19T00:31:43.369Z,2.045593262
2022-12-19T00:32:43.784Z,2.035522461
2022-12-19T00:33:44.346Z,2.045593262
2022-12-19T00:34:45.002Z,2.065734863
2022-12-19T00:35:45.529Z,2.045593262
2022-12-19T00:36:46.143Z,2.045593262
2022-12-19T00:37:49.191Z,2.065734863
2022-12-19T00:38:48.127Z,2.085876465
2022-12-19T00:39:48.782Z,2.075805664
2022-12-19T00:40:49.334Z,2.106018066
2022-12-19T00:41:49.863Z,2.106018066
2022-12-19T00:42:53.527Z,2.116088867
2022-12-19T00:43:50.953Z,2.14630127
2022-12-19T00:44:51.561Z,2.176513672
2022-12-19T00:45:52.886Z,2.176513672
2022-12-19T00:46:53.489Z,2.196655273
2022-12-19T00:47:54.782Z,2.186584473
2022-12-19T00:48:55.291Z,2.196655273
2022-12-19T00:49:55.979Z,2.196655273
2022-12-19T00:50:56.519Z,2.196655273
2022-12-19T00:51:57.175Z,2.226867676
2022-12-19T00:52:57.894Z,2.247009277
2022-12-19T00:53:58.482Z,2.247009277
2022-12-19T00:54:59.494Z,2.267150879
2022-12-19T00:56:30.398Z,2.267150879
2022-12-19T00:57:31.103Z,2.257080078
2022-12-19T00:58:35.445Z,2.257080078
2022-12-19T00:59:33.230Z,2.247009277
2022-12-19T01:00:33.784Z,2.226867676
2022-12-19T01:01:34.577Z,2.216796875
2022-12-19T01:02:35.195Z,2.216796875
2022-12-19T01:03:36.604Z,2.226867676
2022-12-19T01:04:41.518Z,2.216796875
2022-12-19T01:05:37.721Z,2.226867676
2022-12-19T01:06:38.268Z,2.257080078
2022-12-19T01:07:38.923Z,2.267150879
2022-12-19T01:08:40.081Z,2.267150879
2022-12-19T01:09:40.793Z,2.267150879
2022-12-19T01:10:41.322Z,2.257080078
2022-12-19T01:11:41.958Z,2.226867676
2022-12-19T01:12:43.220Z,2.247009277
2022-12-19T01:13:43.754Z,2.226867676
2022-12-19T01:14:44.427Z,2.226867676
2022-12-19T01:15:44.939Z,2.247009277
2022-12-19T01:16:45.448Z,2.247009277
2022-12-19T01:17:46.024Z,2.257080078
2022-12-19T01:18:47.153Z,2.297363281
2022-12-19T01:19:47.832Z,2.28729248
2022-12-19T01:20:48.388Z,2.297363281
2022-12-19T01:21:48.917Z,2.317504883
2022-12-19T01:22:49.491Z,2.317504883
2022-12-19T01:23:49.998Z,2.357788086
2022-12-19T01:24:50.613Z,2.357788086
2022-12-19T01:25:51.162Z,2.357788086
2022-12-19T01:26:51.866Z,2.377929688
2022-12-19T01:27:52.492Z,2.377929688
2022-12-19T01:28:53.622Z,2.357788086
2022-12-19T01:29:54.229Z,2.367858887
2022-12-19T01:30:54.798Z,2.357788086
2022-12-19T01:31:55.538Z,2.357788086
2022-12-19T01:32:55.998Z,2.357788086
2022-12-19T01:33:56.581Z,2.367858887
2022-12-19T01:34:57.110Z,2.367858887
2022-12-19T01:35:58.769Z,2.398071289
2022-12-19T01:37:29.836Z,2.40814209
2022-12-19T01:38:31.320Z,2.428283691
2022-12-19T01:39:31.962Z,2.438354492
2022-12-19T01:40:32.468Z,2.448425293
2022-12-19T01:41:33.035Z,2.438354492
2022-12-19T01:42:33.692Z,2.438354492
2022-12-19T01:43:34.245Z,2.438354492
2022-12-19T01:44:34.944Z,2.438354492
2022-12-19T01:45:37.469Z,2.448425293
2022-12-19T01:46:36.120Z,2.468566895
2022-12-19T01:47:37.653Z,2.478637695
2022-12-19T01:48:38.325Z,2.478637695
2022-12-19T01:49:38.932Z,2.478637695
2022-12-19T01:50:41.427Z,2.468566895
2022-12-19T01:51:40.647Z,2.448425293
2022-12-19T01:52:41.168Z,2.438354492
2022-12-19T01:53:48.406Z,2.40814209
2022-12-19T01:54:42.557Z,2.377929688
2022-12-19T01:55:43.141Z,2.367858887
2022-12-19T01:56:43.614Z,2.367858887
2022-12-19T01:57:44.143Z,2.377929688
2022-12-19T01:58:45.760Z,2.377929688
2022-12-19T01:59:46.351Z,2.398071289
2022-12-19T02:00:47.123Z,2.398071289
2022-12-19T02:01:51.849Z,2.377929688
2022-12-19T02:02:48.314Z,2.377929688
2022-12-19T02:03:48.690Z,2.40814209
2022-12-19T02:04:49.818Z,2.398071289
2022-12-19T02:05:50.452Z,2.428283691
2022-12-19T02:06:50.986Z,2.448425293
2022-12-19T02:07:51.576Z,2.468566895
2022-12-19T02:08:53.019Z,2.438354492
2022-12-19T02:09:57.288Z,2.438354492
2022-12-19T02:10:55.015Z,2.438354492
2022-12-19T02:11:55.530Z,2.438354492
2022-12-19T02:12:56.183Z,2.448425293
2022-12-19T02:13:56.697Z,2.438354492
2022-12-19T02:15:00.536Z,2.478637695
2022-12-19T02:16:29.014Z,2.508850098
2022-12-19T02:17:30.049Z,2.508850098
2022-12-19T02:18:31.330Z,2.498779297
2022-12-19T02:19:31.842Z,2.478637695
2022-12-19T02:20:32.437Z,2.478637695
2022-12-19T02:21:33.025Z,2.498779297
2022-12-19T02:22:33.604Z,2.478637695
2022-12-19T02:23:34.227Z,2.478637695
2022-12-19T02:24:34.829Z,2.498779297
2022-12-19T02:25:35.280Z,2.498779297
2022-12-19T02:26:35.920Z,2.498779297
2022-12-19T02:27:40.145Z,2.498779297
2022-12-19T02:28:37.884Z,2.508850098
2022-12-19T02:29:38.489Z,2.528991699
2022-12-19T02:30:38.996Z,2.549133301
2022-12-19T02:31:39.559Z,2.579345703
2022-12-19T02:32:40.017Z,2.579345703
2022-12-19T02:33:40.709Z,2.549133301
2022-12-19T02:34:44.369Z,2.528991699
2022-12-19T02:35:41.831Z,2.478637695
2022-12-19T02:36:44.423Z,2.468566895
2022-12-19T02:37:43.695Z,2.448425293
2022-12-19T02:38:44.855Z,2.438354492
2022-12-19T02:39:45.481Z,2.468566895
2022-12-19T02:40:46.008Z,2.448425293
2022-12-19T02:41:46.682Z,2.448425293
2022-12-19T02:42:47.156Z,2.438354492
2022-12-19T02:43:49.052Z,2.428283691
2022-12-19T02:44:48.307Z,2.438354492
2022-12-19T02:45:48.996Z,2.40814209
2022-12-19T02:46:49.557Z,2.428283691
2022-12-19T02:47:50.055Z,2.428283691
2022-12-19T02:48:51.331Z,2.438354492
2022-12-19T02:49:52.025Z,2.438354492
2022-12-19T02:50:52.378Z,2.438354492
2022-12-19T02:51:53.091Z,2.448425293
2022-12-19T02:52:53.651Z,2.448425293
2022-12-19T02:53:54.185Z,2.468566895
2022-12-19T02:54:54.747Z,2.498779297
2022-12-19T02:55:55.266Z,2.498779297
2022-12-19T02:56:56.734Z,2.508850098
2022-12-19T02:57:57.524Z,2.478637695
2022-12-19T02:59:29.160Z,2.448425293
2022-12-19T03:00:29.636Z,2.438354492
2022-12-19T03:01:30.314Z,2.448425293
2022-12-19T03:02:30.874Z,2.428283691
2022-12-19T03:03:31.285Z,2.428283691
2022-12-19T03:04:31.911Z,2.40814209
2022-12-19T03:05:32.468Z,2.40814209
2022-12-19T03:06:33.034Z,2.40814209
2022-12-19T03:07:33.611Z,2.40814209
2022-12-19T03:08:35.122Z,2.40814209
2022-12-19T03:09:36.724Z,2.438354492
2022-12-19T03:10:37.273Z,2.438354492
2022-12-19T03:11:37.850Z,2.468566895
2022-12-19T03:12:38.412Z,2.468566895
2022-12-19T03:13:38.896Z,2.468566895
2022-12-19T03:14:39.566Z,2.468566895
2022-12-19T03:15:40.118Z,2.468566895
2022-12-19T03:16:41.746Z,2.478637695
2022-12-19T03:17:42.295Z,2.478637695
2022-12-19T03:18:42.870Z,2.498779297
2022-12-19T03:19:44.096Z,2.498779297
2022-12-19T03:20:44.646Z,2.528991699
2022-12-19T03:21:45.260Z,2.508850098
2022-12-19T03:22:45.853Z,2.528991699
2022-12-19T03:23:46.295Z,2.549133301
2022-12-19T03:24:46.912Z,2.549133301
2022-12-19T03:25:47.412Z,2.559204102
2022-12-19T03:26:48.088Z,2.559204102
2022-12-19T03:27:48.690Z,2.559204102
2022-12-19T03:28:49.798Z,2.549133301
2022-12-19T03:29:50.399Z,2.559204102
2022-12-19T03:30:51.882Z,2.549133301
2022-12-19T03:31:52.388Z,2.559204102
2022-12-19T03:32:53.045Z,2.559204102
2022-12-19T03:33:53.591Z,2.579345703
2022-12-19T03:34:54.219Z,2.589416504
2022-12-19T03:35:54.734Z,2.589416504
2022-12-19T03:36:55.292Z,2.589416504
2022-12-19T03:37:55.930Z,2.579345703
2022-12-19T03:38:57.673Z,2.589416504
2022-12-19T03:40:28.595Z,2.579345703
2022-12-19T03:41:29.102Z,2.579345703
2022-12-19T03:42:29.677Z,2.589416504
2022-12-19T03:43:30.193Z,2.579345703
2022-12-19T03:44:30.911Z,2.559204102
2022-12-19T03:45:32.309Z,2.559204102
2022-12-19T03:46:32.939Z,2.549133301
2022-12-19T03:47:33.449Z,2.549133301
2022-12-19T03:48:34.012Z,2.549133301
2022-12-19T03:49:35.221Z,2.528991699
2022-12-19T03:50:35.811Z,2.549133301
2022-12-19T03:51:36.403Z,2.549133301
2022-12-19T03:52:36.931Z,2.528991699
2022-12-19T03:53:37.537Z,2.508850098
2022-12-19T03:54:38.067Z,2.528991699
2022-12-19T03:55:38.628Z,2.508850098
2022-12-19T03:56:40.321Z,2.508850098
2022-12-19T03:57:40.878Z,2.508850098
2022-12-19T03:58:41.568Z,2.508850098
2022-12-19T03:59:42.528Z,2.498779297
2022-12-19T04:00:43.077Z,2.498779297
2022-12-19T04:01:43.804Z,2.478637695
2022-12-19T04:02:44.365Z,2.498779297
2022-12-19T04:03:44.998Z,2.478637695
2022-12-19T04:04:45.438Z,2.468566895
2022-12-19T04:05:46.064Z,2.448425293
2022-12-19T04:06:46.599Z,2.468566895
2022-12-19T04:07:47.208Z,2.468566895
2022-12-19T04:08:47.823Z,2.468566895
2022-12-19T04:09:49.090Z,2.468566895
2022-12-19T04:10:49.676Z,2.478637695
2022-12-19T04:11:50.217Z,2.498779297
2022-12-19T04:12:50.724Z,2.498779297
2022-12-19T04:13:51.477Z,2.508850098
2022-12-19T04:14:52.048Z,2.508850098
2022-12-19T04:15:52.778Z,2.528991699
2022-12-19T04:16:53.790Z,2.528991699
2022-12-19T04:17:54.295Z,2.549133301
2022-12-19T04:18:55.007Z,2.559204102
2022-12-19T04:19:56.090Z,2.549133301
2022-12-19T04:20:57.470Z,2.549133301
2022-12-19T04:22:28.284Z,2.549133301
2022-12-19T04:23:28.918Z,2.559204102
2022-12-19T04:24:29.453Z,2.579345703
2022-12-19T04:25:30.131Z,2.589416504
2022-12-19T04:26:30.691Z,2.579345703
2022-12-19T04:27:31.309Z,2.589416504
2022-12-19T04:28:31.947Z,2.589416504
2022-12-19T04:29:33.426Z,2.589416504
2022-12-19T04:30:36.705Z,2.589416504
2022-12-19T04:31:34.596Z,2.589416504
2022-12-19T04:32:35.763Z,2.609558105
2022-12-19T04:33:36.274Z,2.589416504
2022-12-19T04:34:41.397Z,2.589416504
2022-12-19T04:35:37.412Z,2.589416504
2022-12-19T04:36:37.960Z,2.609558105
2022-12-19T04:37:39.226Z,2.589416504
2022-12-19T04:38:39.878Z,2.579345703
2022-12-19T04:39:41.314Z,2.579345703
2022-12-19T04:40:42.018Z,2.559204102
2022-12-19T04:41:42.423Z,2.549133301
2022-12-19T04:42:43.165Z,2.549133301
2022-12-19T04:43:43.755Z,2.559204102
2022-12-19T04:44:44.475Z,2.559204102
2022-12-19T04:45:45.013Z,2.559204102
2022-12-19T04:46:46.157Z,2.549133301
2022-12-19T04:47:46.619Z,2.528991699
2022-12-19T04:48:47.245Z,2.559204102
2022-12-19T04:49:48.863Z,2.559204102
2022-12-19T04:50:49.405Z,2.549133301
2022-12-19T04:51:50.028Z,2.528991699
2022-12-19T04:52:55.644Z,2.528991699
2022-12-19T04:53:51.155Z,2.528991699
2022-12-19T04:54:51.849Z,2.549133301
2022-12-19T04:55:52.449Z,2.549133301
2022-12-19T04:56:53.032Z,2.559204102
2022-12-19T04:57:54.557Z,2.549133301
2022-12-19T04:58:55.175Z,2.579345703
2022-12-19T04:59:56.410Z,2.579345703
2022-12-19T05:01:27.836Z,2.579345703
2022-12-19T05:02:28.451Z,2.579345703
2022-12-19T05:03:28.976Z,2.559204102
2022-12-19T05:04:29.407Z,2.589416504
2022-12-19T05:05:30.027Z,2.579345703
2022-12-19T05:06:30.579Z,2.579345703
2022-12-19T05:07:31.130Z,2.559204102
2022-12-19T05:08:31.755Z,2.589416504
2022-12-19T05:09:32.769Z,2.579345703
2022-12-19T05:10:33.303Z,2.609558105
2022-12-19T05:11:33.852Z,2.609558105
2022-12-19T05:12:34.485Z,2.609558105
2022-12-19T05:13:35.069Z,2.619628906
2022-12-19T05:14:35.614Z,2.609558105
2022-12-19T05:15:36.272Z,2.609558105
2022-12-19T05:16:36.684Z,2.619628906
2022-12-19T05:17:37.294Z,2.619628906
2022-12-19T05:18:37.902Z,2.609558105
2022-12-19T05:19:39.298Z,2.579345703
2022-12-19T05:20:40.042Z,2.579345703
2022-12-19T05:21:40.483Z,2.549133301
2022-12-19T05:22:41.056Z,2.528991699
2022-12-19T05:23:41.556Z,2.508850098
2022-12-19T05:24:43.031Z,2.498779297
2022-12-19T05:25:43.715Z,2.498779297
2022-12-19T05:26:44.167Z,2.478637695
2022-12-19T05:27:44.762Z,2.478637695
2022-12-19T05:28:45.284Z,2.468566895
2022-12-19T05:29:45.777Z,2.448425293
2022-12-19T05:30:51.963Z,2.468566895
2022-12-19T05:31:47.602Z,2.468566895
2022-12-19T05:32:48.090Z,2.428283691
2022-12-19T05:33:48.594Z,2.428283691
2022-12-19T05:34:49.146Z,2.428283691
2022-12-19T05:35:49.707Z,2.40814209
2022-12-19T05:36:50.214Z,2.40814209
2022-12-19T05:37:50.823Z,2.40814209
2022-12-19T05:38:51.329Z,2.398071289
2022-12-19T05:39:51.818Z,2.398071289
2022-12-19T05:40:52.424Z,2.40814209
2022-12-19T05:41:53.581Z,2.40814209
2022-12-19T05:42:54.240Z,2.40814209
2022-12-19T05:43:54.747Z,2.377929688
2022-12-19T05:44:55.250Z,2.40814209
2022-12-19T05:45:56.215Z,2.377929688
2022-12-19T05:47:27.916Z,2.398071289
2022-12-19T05:48:28.440Z,2.40814209
2022-12-19T05:49:29.062Z,2.398071289
2022-12-19T05:50:30.535Z,2.398071289
2022-12-19T05:51:31.123Z,2.398071289
2022-12-19T05:52:31.587Z,2.377929688
2022-12-19T05:53:32.078Z,2.377929688
2022-12-19T05:54:32.593Z,2.377929688
2022-12-19T05:55:33.082Z,2.367858887
2022-12-19T05:56:33.734Z,2.377929688
2022-12-19T05:57:34.198Z,2.367858887
2022-12-19T05:58:34.793Z,2.377929688
2022-12-19T05:59:35.348Z,2.367858887
2022-12-19T06:00:36.510Z,2.357788086
2022-12-19T06:01:37.361Z,2.357788086
2022-12-19T06:02:37.795Z,2.327575684
2022-12-19T06:03:38.253Z,2.327575684
2022-12-19T06:04:38.715Z,2.327575684
2022-12-19T06:05:39.219Z,2.317504883
2022-12-19T06:06:39.788Z,2.317504883
2022-12-19T06:07:40.284Z,2.317504883
2022-12-19T06:08:40.832Z,2.297363281
2022-12-19T06:09:41.326Z,2.28729248
2022-12-19T06:10:42.601Z,2.28729248
2022-12-19T06:11:43.259Z,2.297363281
2022-12-19T06:12:43.702Z,2.297363281
2022-12-19T06:13:44.344Z,2.317504883
2022-12-19T06:14:44.802Z,2.317504883
2022-12-19T06:15:45.382Z,2.317504883
2022-12-19T06:16:46.516Z,2.317504883
2022-12-19T06:17:46.991Z,2.297363281
2022-12-19T06:18:47.542Z,2.267150879
2022-12-19T06:19:48.033Z,2.257080078
2022-12-19T06:20:49.599Z,2.257080078
2022-12-19T06:21:50.139Z,2.226867676
2022-12-19T06:22:50.713Z,2.247009277
2022-12-19T06:23:51.250Z,2.216796875
2022-12-19T06:24:51.732Z,2.216796875
2022-12-19T06:25:52.345Z,2.216796875
2022-12-19T06:26:52.874Z,2.196655273
2022-12-19T06:27:53.341Z,2.216796875
2022-12-19T06:28:53.878Z,2.196655273
2022-12-19T06:29:54.466Z,2.176513672
2022-12-19T06:31:26.343Z,2.186584473
2022-12-19T06:32:26.852Z,2.186584473
2022-12-19T06:33:27.597Z,2.186584473
2022-12-19T06:35:02.150Z,2.186584473
2022-12-19T06:35:28.697Z,2.186584473
2022-12-19T06:36:29.202Z,2.186584473
2022-12-19T06:37:29.828Z,2.196655273
2022-12-19T06:38:30.266Z,2.186584473
2022-12-19T06:39:30.862Z,2.186584473
2022-12-19T06:40:32.020Z,2.196655273
2022-12-19T06:41:33.510Z,2.196655273
2022-12-19T06:42:34.138Z,2.216796875
2022-12-19T06:43:34.576Z,2.196655273
2022-12-19T06:44:35.189Z,2.186584473
2022-12-19T06:45:35.739Z,2.196655273
2022-12-19T06:46:36.177Z,2.196655273
2022-12-19T06:47:36.743Z,2.216796875
2022-12-19T06:48:37.775Z,2.196655273
2022-12-19T06:49:38.358Z,2.196655273
2022-12-19T06:50:39.766Z,2.247009277
2022-12-19T06:51:40.247Z,2.226867676
2022-12-19T06:52:40.924Z,2.216796875
2022-12-19T06:53:41.464Z,2.216796875
2022-12-19T06:54:42.111Z,2.216796875
2022-12-19T06:55:42.631Z,2.196655273
2022-12-19T06:56:43.113Z,2.186584473
2022-12-19T06:57:44.305Z,2.176513672
2022-12-19T06:58:44.753Z,2.186584473
2022-12-19T06:59:45.363Z,2.176513672
2022-12-19T07:00:45.915Z,2.14630127
2022-12-19T07:01:47.201Z,2.14630127
2022-12-19T07:02:47.767Z,2.14630127
2022-12-19T07:03:48.107Z,2.14630127
2022-12-19T07:04:48.631Z,2.136230469
2022-12-19T07:05:49.114Z,2.136230469
2022-12-19T07:06:49.760Z,2.116088867
2022-12-19T07:07:50.266Z,2.116088867
2022-12-19T07:08:50.882Z,2.116088867
2022-12-19T07:09:51.393Z,2.116088867
2022-12-19T07:10:52.600Z,2.106018066
2022-12-19T07:11:53.096Z,2.106018066
2022-12-19T07:12:53.669Z,2.106018066
2022-12-19T07:13:54.269Z,2.085876465
2022-12-19T07:14:55.213Z,2.085876465
2022-12-19T07:16:26.114Z,2.085876465
2022-12-19T07:17:26.599Z,2.075805664
2022-12-19T07:18:27.243Z,2.085876465
2022-12-19T07:19:28.519Z,2.085876465
2022-12-19T07:20:29.800Z,2.085876465
2022-12-19T07:21:30.270Z,2.106018066
2022-12-19T07:22:30.831Z,2.085876465
2022-12-19T07:23:31.439Z,2.085876465
2022-12-19T07:24:31.931Z,2.085876465
2022-12-19T07:25:32.508Z,2.085876465
2022-12-19T07:26:33.007Z,2.075805664
2022-12-19T07:27:35.862Z,2.065734863
2022-12-19T07:28:34.517Z,2.075805664
2022-12-19T07:29:35.024Z,2.085876465
2022-12-19T07:30:36.344Z,2.075805664
2022-12-19T07:31:36.968Z,2.075805664
2022-12-19T07:32:37.437Z,2.085876465
2022-12-19T07:33:38.049Z,2.075805664
2022-12-19T07:34:38.586Z,2.075805664
2022-12-19T07:35:39.094Z,2.065734863
2022-12-19T07:36:39.571Z,2.065734863
2022-12-19T07:37:40.101Z,2.075805664
2022-12-19T07:38:40.772Z,2.065734863
2022-12-19T07:39:41.244Z,2.065734863
2022-12-19T07:40:42.373Z,2.045593262
2022-12-19T07:41:42.963Z,2.035522461
2022-12-19T07:42:43.456Z,2.035522461
2022-12-19T07:43:44.097Z,2.015380859
2022-12-19T07:44:44.639Z,2.015380859
2022-12-19T07:45:45.306Z,2.045593262
2022-12-19T07:46:45.665Z,2.015380859
2022-12-19T07:47:46.190Z,2.015380859
2022-12-19T07:48:46.735Z,2.035522461
2022-12-19T07:49:47.218Z,2.045593262
2022-12-19T07:50:48.756Z,2.035522461
2022-12-19T07:51:49.239Z,2.045593262
2022-12-19T07:52:49.816Z,2.045593262
2022-12-19T07:53:51.053Z,2.045593262
2022-12-19T07:54:51.499Z,2.045593262
2022-12-19T07:55:52.060Z,2.045593262
2022-12-19T07:56:52.581Z,2.065734863
2022-12-19T07:57:53.125Z,2.065734863
2022-12-19T07:58:53.719Z,2.085876465
2022-12-19T07:59:54.661Z,2.085876465
2022-12-19T08:01:28.354Z,2.075805664
2022-12-19T08:02:27.089Z,2.106018066
2022-12-19T08:03:27.924Z,2.136230469
2022-12-19T08:04:28.385Z,2.186584473
2022-12-19T08:05:28.902Z,2.216796875
2022-12-19T08:06:29.448Z,2.226867676
2022-12-19T08:07:29.930Z,2.257080078
2022-12-19T08:08:30.508Z,2.257080078
2022-12-19T08:09:30.974Z,2.297363281
2022-12-19T08:10:31.533Z,2.327575684
2022-12-19T08:11:32.015Z,2.377929688
2022-12-19T08:12:32.573Z,2.398071289
2022-12-19T08:13:38.673Z,2.40814209
2022-12-19T08:14:33.715Z,2.428283691
2022-12-19T08:15:34.278Z,2.438354492
2022-12-19T08:16:49.408Z,2.448425293
2022-12-19T08:17:35.478Z,2.478637695
2022-12-19T08:18:35.903Z,2.498779297
2022-12-19T08:19:36.415Z,2.508850098
2022-12-19T08:20:37.025Z,2.508850098
2022-12-19T08:21:38.497Z,2.508850098
2022-12-19T08:22:39.053Z,2.498779297
2022-12-19T08:23:39.584Z,2.508850098
2022-12-19T08:24:40.160Z,2.498779297
2022-12-19T08:25:40.646Z,2.498779297
2022-12-19T08:26:46.032Z,2.508850098
2022-12-19T08:27:41.790Z,2.478637695
2022-12-19T08:28:43.007Z,2.478637695
2022-12-19T08:29:43.529Z,2.478637695
2022-12-19T08:30:44.225Z,2.468566895
2022-12-19T08:31:45.518Z,2.468566895
2022-12-19T08:32:46.112Z,2.478637695
2022-12-19T08:33:46.648Z,2.468566895
2022-12-19T08:34:47.255Z,2.478637695
2022-12-19T08:35:47.743Z,2.508850098
2022-12-19T08:36:48.299Z,2.508850098
2022-12-19T08:37:49.499Z,2.508850098
2022-12-19T08:38:50.025Z,2.508850098
2022-12-19T08:39:50.672Z,2.508850098
2022-12-19T08:40:51.147Z,2.508850098
2022-12-19T08:41:52.610Z,2.528991699
2022-12-19T08:42:53.172Z,2.549133301
2022-12-19T08:43:54.173Z,2.579345703
2022-12-19T08:45:24.979Z,2.579345703
2022-12-19T08:46:25.619Z,2.589416504
2022-12-19T08:47:26.147Z,2.589416504
2022-12-19T08:48:26.724Z,2.629699707
2022-12-19T08:49:27.356Z,2.649841309
2022-12-19T08:50:27.898Z,2.659912109
2022-12-19T08:51:29.189Z,2.680053711
2022-12-19T08:52:29.608Z,2.710266113
2022-12-19T08:53:30.106Z,2.730407715
2022-12-19T08:54:30.619Z,2.760620117
2022-12-19T08:55:31.224Z,2.770690918
2022-12-19T08:56:32.702Z,2.79083252
2022-12-19T08:57:33.263Z,2.810974121
2022-12-19T08:58:33.938Z,2.841186523
2022-12-19T08:59:34.485Z,2.871398926
2022-12-19T09:00:35.052Z,2.941894531
2022-12-19T09:01:36.718Z,2.951965332
2022-12-19T09:02:37.625Z,2.982177734
2022-12-19T09:04:10.008Z,3.022460938
2022-12-19T09:05:57.753Z,3.042602539
2022-12-19T09:06:01.422Z,3.05267334
2022-12-19T09:06:39.742Z,3.072814941
2022-12-19T09:07:41.066Z,3.082885742
2022-12-19T09:08:41.813Z,3.103027344
2022-12-19T09:09:42.377Z,3.123168945
2022-12-19T09:10:42.979Z,3.103027344
2022-12-19T09:11:47.372Z,3.123168945
2022-12-19T09:12:44.612Z,3.133239746
2022-12-19T09:13:45.265Z,3.123168945
2022-12-19T09:14:45.835Z,3.133239746
2022-12-19T09:15:46.445Z,3.133239746
2022-12-19T09:16:47.068Z,3.133239746
2022-12-19T09:17:47.548Z,3.163452148
2022-12-19T09:18:48.972Z,3.163452148
2022-12-19T09:19:48.741Z,3.163452148
2022-12-19T09:20:49.282Z,3.173522949
2022-12-19T09:21:50.532Z,3.173522949
2022-12-19T09:22:51.181Z,3.193664551
2022-12-19T09:23:51.811Z,3.193664551
2022-12-19T09:24:52.471Z,3.203735352
2022-12-19T09:25:53.067Z,3.233947754
2022-12-19T09:27:24.038Z,3.254089355
2022-12-19T09:28:27.606Z,3.264160156
2022-12-19T09:29:25.330Z,3.304443359
2022-12-19T09:30:26.793Z,3.31451416
2022-12-19T09:31:29.403Z,3.334655762
2022-12-19T09:32:29.809Z,3.344726563
2022-12-19T09:33:30.446Z,3.354797363
2022-12-19T09:34:33.479Z,3.354797363
2022-12-19T09:35:31.699Z,3.354797363
2022-12-19T09:36:32.790Z,3.354797363
2022-12-19T09:37:33.234Z,3.374938965
2022-12-19T09:38:34.666Z,3.385009766
2022-12-19T09:39:34.461Z,3.405151367
2022-12-19T09:40:36.316Z,3.43536377
2022-12-19T09:41:37.811Z,3.44543457
2022-12-19T09:42:41.296Z,3.455505371
2022-12-19T09:43:41.456Z,3.485717773
2022-12-19T09:44:39.275Z,3.485717773
2022-12-19T09:45:40.025Z,3.485717773
2022-12-19T09:46:40.669Z,3.485717773
2022-12-19T09:47:41.092Z,3.485717773
2022-12-19T09:48:41.589Z,3.495788574
2022-12-19T09:49:42.205Z,3.526000977
2022-12-19T09:50:42.846Z,3.526000977
2022-12-19T09:51:44.288Z,3.536071777
2022-12-19T09:52:44.862Z,3.556213379
2022-12-19T09:53:45.612Z,3.556213379
2022-12-19T09:54:46.646Z,3.56628418
2022-12-19T09:55:47.275Z,3.586425781
2022-12-19T09:56:47.986Z,3.596496582
2022-12-19T09:57:49.174Z,3.596496582
2022-12-19T09:58:49.707Z,3.616638184
2022-12-19T09:59:50.469Z,3.616638184
2022-12-19T10:00:55.343Z,3.616638184
2022-12-19T10:01:52.309Z,3.616638184
2022-12-19T10:02:53.660Z,3.636779785
2022-12-19T10:04:24.102Z,3.666992188
2022-12-19T10:05:38.823Z,3.677062988
2022-12-19T10:07:16.373Z,3.69720459
2022-12-19T10:07:49.830Z,3.707275391
2022-12-19T10:08:27.720Z,3.707275391
2022-12-19T10:12:11.822Z,3.737487793
2022-12-19T10:12:35.371Z,3.747558594
2022-12-19T10:12:40.177Z,3.777770996
2022-12-19T10:12:42.400Z,3.797912598
2022-12-19T10:13:31.491Z,3.797912598
2022-12-19T10:14:32.147Z,3.818054199
2022-12-19T10:15:32.690Z,3.818054199
2022-12-19T10:16:33.230Z,3.838195801
2022-12-19T10:17:33.790Z,3.858337402
2022-12-19T10:18:34.317Z,3.838195801
2022-12-19T10:19:36.335Z,3.878479004
2022-12-19T10:20:36.848Z,3.888549805
2022-12-19T10:22:15.844Z,3.898620605
2022-12-19T10:22:38.757Z,3.898620605
2022-12-19T10:23:39.434Z,3.918762207
2022-12-19T10:24:40.648Z,3.918762207
2022-12-19T10:25:41.286Z,3.948974609
2022-12-19T10:26:42.503Z,3.948974609
2022-12-19T10:27:44.211Z,3.95904541
2022-12-19T10:28:43.727Z,3.979187012
2022-12-19T10:29:44.357Z,3.979187012
2022-12-19T10:30:45.892Z,3.989257813
2022-12-19T10:31:46.327Z,3.999328613
2022-12-19T10:32:47.815Z,3.989257813
2022-12-19T10:33:48.372Z,3.989257813
2022-12-19T10:34:48.846Z,3.989257813
2022-12-19T10:35:49.529Z,3.999328613
2022-12-19T10:37:52.148Z,4.019470215
2022-12-19T10:39:23.323Z,3.999328613
2022-12-19T10:40:28.356Z,4.019470215
2022-12-19T10:41:24.428Z,4.039611816
2022-12-19T10:42:25.497Z,4.059753418
2022-12-19T10:43:33.577Z,4.059753418
2022-12-19T10:44:26.697Z,4.069824219
2022-12-19T10:45:27.283Z,4.07989502
2022-12-19T10:46:28.014Z,4.110107422
2022-12-19T10:47:28.531Z,4.130249023
2022-12-19T10:48:30.841Z,4.140319824
2022-12-19T10:49:29.480Z,4.170532227
2022-12-19T10:50:30.708Z,4.170532227
2022-12-19T10:51:31.415Z,4.180603027
2022-12-19T10:52:32.608Z,4.170532227
2022-12-19T10:53:33.096Z,4.180603027
2022-12-19T10:54:33.879Z,4.180603027
2022-12-19T10:55:34.314Z,4.180603027
2022-12-19T10:56:37.977Z,4.180603027
2022-12-19T10:57:36.381Z,4.200744629
2022-12-19T10:58:36.996Z,4.180603027
2022-12-19T10:59:37.518Z,4.170532227
2022-12-19T11:00:38.114Z,4.180603027
2022-12-19T11:01:39.378Z,4.180603027
2022-12-19T11:02:41.424Z,4.170532227
2022-12-19T11:03:42.018Z,4.170532227
2022-12-19T11:04:42.326Z,4.170532227
2022-12-19T11:05:42.934Z,4.140319824